Time;durP1;ratioP1;P1;durP2;ratioP2;P2;SDS_P1;SDS_P2;PMS_P1;PMS_P2;Temp;Humidity;BMP_temperature;BMP_pressure;BME280_temperature;BME280_humidity;BME280_pressure;Samples;Min_cycle;Max_cycle;Signal;HPM_P1;HPM_P2
2022/05/28 00:03:03;;;;;;;3.37;2.77;;;9.60;99.90;;;;;;6182580;28;20719;-54
2022/05/28 00:06:10;;;;;;;8.13;2.90;;;9.60;99.90;;;;;;6184827;28;20235;-53
2022/05/28 00:09:14;;;;;;;4.37;2.60;;;9.50;99.90;;;;;;6191962;28;20610;-54
2022/05/28 00:12:17;;;;;;;5.43;2.87;;;9.50;99.90;;;;;;6177053;28;20311;-52
2022/05/28 00:15:20;;;;;;;6.27;2.93;;;9.50;99.90;;;;;;6171533;28;20371;-51
2022/05/28 00:18:22;;;;;;;6.53;2.80;;;9.50;99.90;;;;;;6184976;28;20243;-52
2022/05/28 00:21:27;;;;;;;3.77;2.87;;;9.50;99.90;;;;;;6185618;28;20249;-52
2022/05/28 00:24:31;;;;;;;6.53;3.10;;;9.40;99.90;;;;;;6184705;28;20598;-52
2022/05/28 00:27:33;;;;;;;6.70;3.20;;;9.40;99.90;;;;;;6194280;28;20335;-54
2022/05/28 00:30:37;;;;;;;3.20;2.90;;;9.50;99.90;;;;;;6179102;28;20248;-51
2022/05/28 00:33:39;;;;;;;5.33;2.97;;;9.50;99.90;;;;;;6183767;28;20386;-53
2022/05/28 00:36:42;;;;;;;4.13;3.23;;;9.50;99.90;;;;;;6184633;28;20248;-54
2022/05/28 00:39:46;;;;;;;4.70;3.10;;;9.50;99.90;;;;;;6180171;28;20268;-53
2022/05/28 00:42:49;;;;;;;8.67;3.17;;;9.50;99.90;;;;;;6184874;28;20709;-53
2022/05/28 00:45:58;;;;;;;5.07;3.03;;;9.40;99.90;;;;;;6191236;28;20231;-52
2022/05/28 00:49:08;;;;;;;8.63;3.20;;;9.40;99.90;;;;;;6186486;28;21630;-52
2022/05/28 00:52:11;;;;;;;4.23;2.90;;;9.50;99.90;;;;;;6168691;28;20368;-59
2022/05/28 00:55:17;;;;;;;5.57;3.10;;;9.50;99.90;;;;;;6183133;28;20326;-53
2022/05/28 00:58:19;;;;;;;6.93;3.17;;;9.50;99.90;;;;;;6168719;28;20240;-52
2022/05/28 01:01:26;;;;;;;5.27;3.30;;;9.50;99.90;;;;;;6194033;28;20331;-52
2022/05/28 01:04:36;;;;;;;5.43;3.20;;;9.50;99.90;;;;;;6189020;28;20572;-55
2022/05/28 01:07:43;;;;;;;3.70;3.10;;;9.50;99.90;;;;;;6183914;28;20628;-53
2022/05/28 01:10:55;;;;;;;4.17;3.17;;;9.60;99.90;;;;;;6179469;28;20258;-54
2022/05/28 01:14:03;;;;;;;5.33;3.67;;;9.50;99.90;;;;;;6193470;28;20467;-53
2022/05/28 01:17:13;;;;;;;9.23;4.00;;;9.50;99.90;;;;;;6182104;28;20255;-52
2022/05/28 01:20:21;;;;;;;6.80;3.60;;;9.50;99.90;;;;;;6186173;28;20900;-52
2022/05/28 01:23:35;;;;;;;8.03;3.20;;;9.60;99.90;;;;;;6183424;28;20292;-53
2022/05/28 01:26:48;;;;;;;8.00;3.70;;;9.60;99.90;;;;;;6197155;28;20317;-51
2022/05/28 01:29:54;;;;;;;9.40;3.57;;;9.60;99.90;;;;;;6187086;28;20264;-53
2022/05/28 01:32:59;;;;;;;6.03;4.00;;;9.50;99.90;;;;;;6195769;28;20374;-53
2022/05/28 01:36:02;;;;;;;5.37;3.63;;;9.50;99.90;;;;;;6208660;28;20239;-54
2022/05/28 01:39:07;;;;;;;6.63;3.63;;;9.50;99.90;;;;;;6196203;28;20306;-52
2022/05/28 01:42:11;;;;;;;7.73;3.33;;;9.50;99.90;;;;;;6185313;28;20248;-52
2022/05/28 01:45:17;;;;;;;6.07;3.30;;;9.60;99.90;;;;;;6194927;28;20318;-53
2022/05/28 01:48:21;;;;;;;4.47;3.00;;;9.50;99.90;;;;;;6188873;28;20244;-52
2022/05/28 01:51:28;;;;;;;4.47;3.30;;;9.50;99.90;;;;;;6184867;28;20247;-53
2022/05/28 01:54:36;;;;;;;4.90;3.37;;;9.50;99.90;;;;;;6189002;28;20235;-52
2022/05/28 01:57:40;;;;;;;4.43;3.40;;;9.50;99.90;;;;;;6201254;28;20328;-52
2022/05/28 02:00:43;;;;;;;11.03;3.90;;;9.50;99.90;;;;;;6192909;28;20320;-52
2022/05/28 02:03:49;;;;;;;4.20;3.27;;;9.50;99.90;;;;;;6184029;28;20232;-53
2022/05/28 02:06:53;;;;;;;5.50;3.33;;;9.50;99.90;;;;;;6185279;28;20231;-54
2022/05/28 02:09:59;;;;;;;7.67;3.47;;;9.40;99.90;;;;;;6190874;28;20228;-55
2022/05/28 02:13:13;;;;;;;7.10;3.20;;;9.40;99.90;;;;;;6187899;28;20757;-52
2022/05/28 02:16:21;;;;;;;6.40;3.70;;;9.50;99.90;;;;;;6180482;28;20234;-52
2022/05/28 02:19:29;;;;;;;5.50;3.40;;;9.50;99.90;;;;;;6193502;28;20751;-53
2022/05/28 02:22:39;;;;;;;8.70;3.60;;;9.50;99.90;;;;;;6184896;28;20673;-54
2022/05/28 02:25:46;;;;;;;5.43;3.53;;;9.50;99.90;;;;;;6188262;28;20319;-52
2022/05/28 02:28:51;;;;;;;9.67;3.87;;;9.50;99.90;;;;;;6179391;28;20244;-53
2022/05/28 02:31:54;;;;;;;8.63;3.50;;;9.50;99.90;;;;;;6190605;28;20590;-50
2022/05/28 02:34:57;;;;;;;10.77;4.13;;;9.50;99.90;;;;;;6185507;28;20367;-52
2022/05/28 02:37:59;;;;;;;7.23;3.33;;;9.50;99.90;;;;;;6188691;28;20881;-53
2022/05/28 02:41:02;;;;;;;7.93;3.57;;;9.50;99.90;;;;;;6183160;28;20245;-52
2022/05/28 02:44:06;;;;;;;6.77;3.40;;;9.50;99.90;;;;;;6197412;28;20401;-53
2022/05/28 02:47:09;;;;;;;8.73;3.63;;;9.50;99.90;;;;;;6201492;28;20305;-52
2022/05/28 02:50:12;;;;;;;3.83;3.30;;;9.50;99.90;;;;;;6184641;28;20408;-52
2022/05/28 02:53:14;;;;;;;7.03;3.50;;;9.50;99.90;;;;;;6186077;28;20236;-53
2022/05/28 02:56:17;;;;;;;4.60;3.20;;;9.40;99.90;;;;;;6187159;28;20330;-53
2022/05/28 02:59:21;;;;;;;7.77;3.33;;;9.40;99.90;;;;;;6181469;28;20301;-53
2022/05/28 03:02:27;;;;;;;5.93;3.47;;;9.40;99.90;;;;;;6177528;28;20319;-53
2022/05/28 03:05:30;;;;;;;13.33;4.37;;;9.40;99.90;;;;;;6184008;28;20669;-54
2022/05/28 03:08:33;;;;;;;6.10;3.23;;;9.40;99.90;;;;;;6188454;28;20820;-54
2022/05/28 03:11:37;;;;;;;3.87;3.23;;;9.40;99.90;;;;;;6186598;28;20248;-55
2022/05/28 03:14:41;;;;;;;6.47;3.17;;;9.50;99.90;;;;;;6180896;28;20238;-54
2022/05/28 03:17:44;;;;;;;7.83;3.37;;;9.50;99.90;;;;;;6190715;28;21219;-53
2022/05/28 03:20:47;;;;;;;7.10;3.77;;;9.50;99.90;;;;;;6194457;28;20243;-53
2022/05/28 03:23:50;;;;;;;4.57;3.60;;;9.50;99.90;;;;;;6185552;28;20296;-52
2022/05/28 03:26:57;;;;;;;7.20;3.20;;;9.50;99.90;;;;;;6199366;28;20515;-52
2022/05/28 03:30:01;;;;;;;7.33;3.23;;;9.50;99.90;;;;;;6190472;28;20731;-54
2022/05/28 03:33:04;;;;;;;5.87;3.20;;;9.60;99.90;;;;;;6180627;28;20326;-53
2022/05/28 03:36:07;;;;;;;9.07;3.53;;;9.60;99.90;;;;;;6196744;28;20310;-53
2022/05/28 03:39:10;;;;;;;11.07;3.63;;;9.60;99.90;;;;;;6154978;28;20319;-50
2022/05/28 03:42:13;;;;;;;6.77;3.60;;;9.60;99.90;;;;;;6186114;28;20406;-53
2022/05/28 03:45:17;;;;;;;5.63;3.50;;;9.60;99.90;;;;;;6186693;28;20292;-53
2022/05/28 03:48:20;;;;;;;4.33;3.40;;;9.60;99.90;;;;;;6180760;28;20711;-52
2022/05/28 03:51:23;;;;;;;8.93;3.80;;;9.70;99.90;;;;;;6182491;28;20735;-52
2022/05/28 03:54:26;;;;;;;6.13;3.53;;;9.70;99.90;;;;;;6185209;28;20232;-52
2022/05/28 03:57:31;;;;;;;5.33;3.53;;;9.80;99.90;;;;;;6181128;28;20318;-53
2022/05/28 04:00:36;;;;;;;7.13;3.23;;;9.90;99.90;;;;;;6175808;28;20235;-52
2022/05/28 04:03:38;;;;;;;5.57;3.33;;;9.90;99.90;;;;;;6179165;28;20240;-53
2022/05/28 04:06:41;;;;;;;8.27;3.73;;;9.90;99.90;;;;;;6178217;28;20235;-53
2022/05/28 04:09:44;;;;;;;4.83;3.50;;;10.00;99.90;;;;;;6170860;28;20238;-53
2022/05/28 04:12:47;;;;;;;5.97;3.10;;;10.00;99.90;;;;;;6181425;28;20327;-52
2022/05/28 04:15:52;;;;;;;6.43;3.40;;;10.00;97.60;;;;;;6179451;28;20604;-52
2022/05/28 04:18:54;;;;;;;9.73;3.47;;;10.00;95.90;;;;;;6185798;28;20236;-54
2022/05/28 04:21:57;;;;;;;7.03;3.43;;;10.10;94.30;;;;;;6190984;28;20407;-53
2022/05/28 04:25:00;;;;;;;6.77;3.37;;;10.10;94.00;;;;;;6189688;28;20251;-53
2022/05/28 04:28:02;;;;;;;5.10;3.60;;;10.20;92.40;;;;;;6187829;28;20436;-54
2022/05/28 04:31:06;;;;;;;7.60;3.73;;;10.20;94.50;;;;;;6188325;28;20239;-55
2022/05/28 04:34:09;;;;;;;4.70;3.70;;;10.20;99.90;;;;;;6187284;28;20243;-54
2022/05/28 04:37:12;;;;;;;5.97;3.47;;;10.10;99.90;;;;;;6186816;28;20482;-53
2022/05/28 04:40:15;;;;;;;5.57;3.73;;;10.00;99.90;;;;;;6187160;28;20242;-53
2022/05/28 04:43:18;;;;;;;7.50;3.80;;;9.90;99.90;;;;;;6188507;28;20260;-52
2022/05/28 04:46:22;;;;;;;4.70;3.27;;;9.90;99.90;;;;;;6183863;28;20244;-54
2022/05/28 04:49:25;;;;;;;7.63;3.73;;;9.80;99.90;;;;;;6185840;28;20889;-54
2022/05/28 04:52:28;;;;;;;5.23;3.23;;;9.80;99.90;;;;;;6180058;28;20736;-53
2022/05/28 04:55:31;;;;;;;4.93;3.27;;;9.80;99.90;;;;;;6182524;28;20302;-53
2022/05/28 04:58:34;;;;;;;5.03;3.07;;;9.80;99.90;;;;;;6183091;28;20319;-54
2022/05/28 05:01:38;;;;;;;6.60;3.30;;;9.80;99.90;;;;;;6180621;28;20295;-52
2022/05/28 05:04:41;;;;;;;3.30;3.00;;;10.00;99.90;;;;;;6175863;28;20769;-52
2022/05/28 05:07:44;;;;;;;4.63;3.27;;;10.10;99.90;;;;;;6188168;28;20236;-53
2022/05/28 05:10:48;;;;;;;5.33;3.00;;;10.30;99.90;;;;;;6180909;28;20486;-54
2022/05/28 05:13:51;;;;;;;4.40;3.00;;;10.40;99.90;;;;;;6178509;28;20311;-52
2022/05/28 05:16:55;;;;;;;5.27;3.17;;;10.70;99.90;;;;;;6188627;28;20257;-54
2022/05/28 05:19:57;;;;;;;3.87;2.63;;;10.70;99.90;;;;;;6178306;28;20243;-52
2022/05/28 05:23:00;;;;;;;4.90;2.80;;;10.80;99.90;;;;;;6186569;28;20240;-53
2022/05/28 05:26:09;;;;;;;2.63;2.20;;;10.90;96.70;;;;;;6191313;28;20311;-52
2022/05/28 05:29:12;;;;;;;2.53;2.33;;;11.00;88.80;;;;;;6188112;28;20236;-53
2022/05/28 05:32:16;;;;;;;2.57;2.40;;;11.00;87.60;;;;;;6178094;28;20277;-52
2022/05/28 05:35:19;;;;;;;3.50;2.83;;;10.90;89.20;;;;;;6182726;28;20236;-53
2022/05/28 05:38:22;;;;;;;3.73;2.37;;;10.80;95.60;;;;;;6188063;28;20270;-54
2022/05/28 05:41:25;;;;;;;3.10;2.53;;;10.80;90.90;;;;;;6176997;28;20378;-52
2022/05/28 05:44:27;;;;;;;2.90;2.60;;;10.90;82.90;;;;;;6188610;28;20230;-53
2022/05/28 05:47:32;;;;;;;2.93;2.63;;;10.80;89.00;;;;;;6194319;28;20394;-52
2022/05/28 05:50:34;;;;;;;2.43;2.30;;;10.80;89.50;;;;;;6176763;28;20697;-53
2022/05/28 05:53:37;;;;;;;4.83;2.87;;;10.90;83.90;;;;;;6188025;28;20251;-52
2022/05/28 05:56:40;;;;;;;3.77;2.60;;;11.00;65.50;;;;;;6198091;28;20248;-52
2022/05/28 05:59:43;;;;;;;8.13;2.93;;;11.00;74.50;;;;;;6188353;28;20254;-53
2022/05/28 06:02:47;;;;;;;4.43;2.53;;;10.90;84.60;;;;;;6191208;28;20432;-53
2022/05/28 06:05:49;;;;;;;3.10;2.90;;;10.90;76.70;;;;;;6187914;28;20243;-54
2022/05/28 06:08:52;;;;;;;4.10;2.80;;;10.90;70.60;;;;;;6186167;28;20739;-52
2022/05/28 06:11:55;;;;;;;2.80;2.60;;;10.80;73.50;;;;;;6195125;28;20263;-52
2022/05/28 06:14:57;;;;;;;2.67;2.47;;;10.80;73.60;;;;;;6196611;28;20619;-53
2022/05/28 06:18:01;;;;;;;4.83;2.80;;;10.80;68.80;;;;;;6195079;28;20247;-53
2022/05/28 06:21:05;;;;;;;3.27;2.70;;;10.80;67.40;;;;;;6185467;28;20232;-52
2022/05/28 06:24:08;;;;;;;3.77;3.23;;;10.70;73.50;;;;;;6192961;28;20232;-51
2022/05/28 06:27:11;;;;;;;3.53;2.43;;;11.00;71.70;;;;;;6186937;28;20987;-52
2022/05/28 06:30:14;;;;;;;5.20;2.90;;;11.00;52.70;;;;;;6194612;28;20342;-52
2022/05/28 06:33:19;;;;;;;3.77;2.87;;;11.00;38.30;;;;;;6198654;28;20246;-56
2022/05/28 06:36:22;;;;;;;5.43;3.30;;;11.10;50.60;;;;;;6185564;28;20244;-51
2022/05/28 06:39:25;;;;;;;5.33;2.80;;;11.10;41.60;;;;;;6185469;28;20235;-53
2022/05/28 06:42:28;;;;;;;7.63;2.87;;;11.20;36.60;;;;;;6191042;28;20477;-53
2022/05/28 06:45:31;;;;;;;2.87;2.53;;;11.20;22.80;;;;;;6185857;28;20346;-52
2022/05/28 06:48:36;;;;;;;5.23;2.77;;;11.40;20.90;;;;;;6184835;28;20736;-51
2022/05/28 06:51:40;;;;;;;5.10;2.77;;;11.80;14.20;;;;;;6187696;28;20504;-52
2022/05/28 06:54:42;;;;;;;3.93;3.00;;;11.90;4.70;;;;;;6189001;28;20713;-52
2022/05/28 06:57:45;;;;;;;3.23;2.80;;;12.00;1.20;;;;;;6190350;28;20259;-53
2022/05/28 07:00:48;;;;;;;5.47;2.50;;;12.00;1.00;;;;;;6192832;28;20307;-51
2022/05/28 07:03:52;;;;;;;6.83;2.73;;;12.00;7.10;;;;;;6193970;28;20601;-51
2022/05/28 07:06:56;;;;;;;6.37;2.67;;;12.00;1.00;;;;;;6192314;28;20250;-52
2022/05/28 07:09:59;;;;;;;7.00;3.20;;;12.00;2.00;;;;;;6180318;28;20829;-57
2022/05/28 07:13:02;;;;;;;4.87;3.10;;;12.10;1.00;;;;;;6191910;28;20375;-54
2022/05/28 07:16:06;;;;;;;4.30;2.57;;;12.20;1.00;;;;;;6186566;28;20236;-54
2022/05/28 07:19:10;;;;;;;2.80;2.60;;;12.40;1.00;;;;;;6189657;28;20247;-54
2022/05/28 07:22:13;;;;;;;4.07;2.80;;;12.50;1.00;;;;;;6185527;28;20235;-52
2022/05/28 07:25:15;;;;;;;4.97;2.70;;;12.60;1.00;;;;;;6190786;28;20362;-52
2022/05/28 07:28:27;;;;;;;3.97;2.93;;;12.60;1.00;;;;;;6182938;28;20620;-52
2022/05/28 07:31:30;;;;;;;6.27;2.90;;;12.60;1.00;;;;;;6185678;28;20345;-52
2022/05/28 07:34:34;;;;;;;3.67;2.70;;;12.60;1.00;;;;;;6189904;28;20373;-53
2022/05/28 07:37:37;;;;;;;2.53;2.40;;;12.60;1.00;;;;;;6185126;28;20240;-54
2022/05/28 07:40:40;;;;;;;2.83;2.63;;;12.70;1.00;;;;;;6181552;28;20919;-54
2022/05/28 07:43:43;;;;;;;4.33;2.83;;;12.80;1.00;;;;;;6184721;28;20235;-52
2022/05/28 07:46:46;;;;;;;3.20;2.90;;;12.70;1.00;;;;;;6187129;28;20718;-53
2022/05/28 07:49:50;;;;;;;5.23;2.50;;;12.70;1.00;;;;;;6180442;28;20504;-53
2022/05/28 07:52:52;;;;;;;2.93;2.73;;;12.60;1.00;;;;;;6187346;28;20717;-53
2022/05/28 07:55:55;;;;;;;6.73;2.93;;;12.70;1.00;;;;;;6188604;28;20231;-53
2022/05/28 07:58:59;;;;;;;4.50;2.40;;;12.90;1.00;;;;;;6186310;28;20705;-53
2022/05/28 08:02:03;;;;;;;4.27;2.90;;;13.10;1.00;;;;;;6194851;28;20766;-56
2022/05/28 08:05:08;;;;;;;3.00;2.70;;;13.10;1.00;;;;;;6192743;28;20244;-54
2022/05/28 08:08:11;;;;;;;2.80;2.50;;;13.20;1.00;;;;;;6180749;28;20461;-53
2022/05/28 08:11:14;;;;;;;4.10;2.70;;;13.30;1.00;;;;;;6190165;28;20278;-53
2022/05/28 08:14:17;;;;;;;6.10;2.80;;;13.40;1.00;;;;;;6191435;28;20298;-53
2022/05/28 08:17:20;;;;;;;4.17;2.97;;;13.40;1.00;;;;;;6180240;28;20231;-54
2022/05/28 08:23:08;;;;;;;6.13;3.00;;;13.50;1.00;;;;;;6181561;28;20246;-53
2022/05/28 08:23:46;;;;;;;3.23;2.67;;;13.50;1.00;;;;;;6189684;28;20224;-52
2022/05/28 08:26:48;;;;;;;5.50;3.00;;;13.90;1.00;;;;;;6194746;28;20759;-53
2022/05/28 08:29:51;;;;;;;3.20;2.83;;;14.10;1.00;;;;;;6191344;28;20796;-54
2022/05/28 08:32:54;;;;;;;3.43;2.70;;;13.90;1.00;;;;;;6181349;28;20295;-54
2022/05/28 08:35:59;;;;;;;4.33;2.80;;;13.70;1.00;;;;;;6189360;28;20381;-53
2022/05/28 08:39:02;;;;;;;5.03;2.70;;;13.60;1.00;;;;;;6192063;28;20496;-53
2022/05/28 08:42:06;;;;;;;5.20;2.83;;;13.60;1.00;;;;;;6187047;28;20239;-53
2022/05/28 08:45:11;;;;;;;5.27;2.97;;;13.70;1.00;;;;;;6196863;28;20243;-53
2022/05/28 08:48:20;;;;;;;4.27;2.80;;;13.80;1.00;;;;;;6193227;28;20242;-54
2022/05/28 08:51:34;;;;;;;8.40;3.50;;;13.80;1.00;;;;;;6177074;28;20702;-53
2022/05/28 08:54:41;;;;;;;9.27;2.87;;;14.00;1.00;;;;;;6185316;28;20335;-54
2022/05/28 08:57:49;;;;;;;5.23;2.83;;;14.10;1.00;;;;;;6193593;28;20248;-53
2022/05/28 09:00:57;;;;;;;4.47;2.90;;;14.10;1.00;;;;;;6191238;28;20293;-55
2022/05/28 09:04:04;;;;;;;3.23;2.93;;;13.90;1.00;;;;;;6190231;28;20405;-56
2022/05/28 09:07:12;;;;;;;6.60;3.13;;;13.80;1.00;;;;;;6176467;28;20617;-54
2022/05/28 09:10:15;;;;;;;4.23;2.70;;;13.70;1.00;;;;;;6190525;28;20274;-53
2022/05/28 09:13:25;;;;;;;5.30;2.80;;;14.00;1.00;;;;;;6194392;28;20239;-55
2022/05/28 09:16:31;;;;;;;4.90;3.20;;;14.20;1.00;;;;;;6186689;28;20236;-52
2022/05/28 09:19:40;;;;;;;3.30;2.80;;;14.40;1.00;;;;;;6181813;28;20479;-54
2022/05/28 09:22:44;;;;;;;6.53;3.03;;;14.30;1.00;;;;;;6180966;28;20701;-52
2022/05/28 09:25:50;;;;;;;4.63;2.83;;;14.00;1.00;;;;;;6180369;28;20896;-54
2022/05/28 09:29:05;;;;;;;3.17;2.83;;;14.00;1.00;;;;;;6184993;28;20239;-54
2022/05/28 09:32:17;;;;;;;2.73;2.60;;;14.20;1.00;;;;;;6190611;28;20343;-53
2022/05/28 09:35:27;;;;;;;3.27;2.90;;;14.40;1.00;;;;;;6186744;28;20243;-52
2022/05/28 09:38:41;;;;;;;6.93;3.00;;;14.50;1.00;;;;;;6186446;28;20736;-53
2022/05/28 09:41:53;;;;;;;6.70;3.07;;;14.70;1.00;;;;;;6180750;28;20240;-52
2022/05/28 09:45:10;;;;;;;3.40;2.60;;;14.70;1.00;;;;;;6176587;28;20235;-53
2022/05/28 09:48:21;;;;;;;3.37;3.00;;;14.70;1.00;;;;;;6194845;28;20251;-54
2022/05/28 09:51:25;;;;;;;3.20;2.90;;;14.90;1.00;;;;;;6192958;28;20243;-55
2022/05/28 09:54:33;;;;;;;3.83;3.20;;;15.10;1.00;;;;;;6191263;28;20763;-54
2022/05/28 09:57:44;;;;;;;6.13;3.00;;;15.20;1.00;;;;;;6194359;28;20280;-54
2022/05/28 10:00:49;;;;;;;4.97;3.13;;;15.20;1.00;;;;;;6183299;28;20228;-53
2022/05/28 10:07:15;;;;;;;4.30;2.60;;;15.00;1.00;;;;;;6188297;28;20296;-55
2022/05/28 10:10:22;;;;;;;6.40;2.87;;;14.80;1.00;;;;;;6193338;28;20740;-55
2022/05/28 10:13:25;;;;;;;2.57;2.40;;;14.70;1.00;;;;;;6186341;28;20239;-51
2022/05/28 10:16:38;;;;;;;2.93;2.63;;;14.70;1.00;;;;;;6189656;28;20417;-54
2022/05/28 10:19:49;;;;;;;2.83;2.60;;;14.90;1.00;;;;;;6180776;28;20251;-53
2022/05/28 10:22:55;;;;;;;3.17;2.70;;;14.90;1.00;;;;;;6196244;28;20242;-53
2022/05/28 10:25:59;;;;;;;8.40;2.90;;;14.90;1.00;;;;;;6190680;28;20297;-53
2022/05/28 10:29:05;;;;;;;4.63;2.90;;;15.10;1.00;;;;;;6189907;28;20334;-53
2022/05/28 10:32:18;;;;;;;4.53;2.70;;;15.10;1.00;;;;;;6188387;28;20406;-54
2022/05/28 10:35:23;;;;;;;3.43;2.80;;;15.30;1.00;;;;;;6185766;28;20640;-54
2022/05/28 10:38:28;;;;;;;5.10;2.70;;;15.40;1.00;;;;;;6192514;28;20301;-55
2022/05/28 10:41:35;;;;;;;6.87;3.50;;;15.40;1.00;;;;;;6187489;28;20239;-54
2022/05/28 10:44:39;;;;;;;5.87;2.97;;;15.40;1.00;;;;;;6191311;28;20777;-53
2022/05/28 10:47:57;;;;;;;4.87;2.93;;;15.50;1.00;;;;;;6187592;28;20708;-52
2022/05/28 10:51:11;;;;;;;7.47;3.27;;;15.50;1.00;;;;;;6180552;28;20348;-57
2022/05/28 10:54:24;;;;;;;3.43;2.93;;;15.80;1.00;;;;;;6182838;28;20232;-53
2022/05/28 10:57:44;;;;;;;6.67;2.53;;;15.70;1.00;;;;;;6187850;28;20243;-55
2022/05/28 11:00:58;;;;;;;5.53;3.23;;;15.80;1.00;;;;;;6196390;28;20519;-52
2022/05/28 11:04:18;;;;;;;3.40;2.60;;;15.80;1.00;;;;;;6198526;28;20319;-55
2022/05/28 11:07:43;;;;;;;4.97;2.93;;;15.70;1.00;;;;;;6197344;28;20260;-51
2022/05/28 11:10:59;;;;;;;7.33;3.00;;;15.70;1.00;;;;;;6185158;28;20315;-53
2022/05/28 11:14:30;;;;;;;5.83;2.90;;;15.80;1.00;;;;;;6191950;28;20717;-53
2022/05/28 11:17:46;;;;;;;8.00;2.90;;;15.90;1.00;;;;;;6161040;28;20363;-51
2022/05/28 11:20:56;;;;;;;6.47;2.80;;;16.00;1.00;;;;;;6183057;28;20232;-52
2022/05/28 11:24:21;;;;;;;4.17;2.90;;;16.30;1.00;;;;;;6179096;28;20437;-52
2022/05/28 11:27:40;;;;;;;6.20;2.70;;;16.40;1.00;;;;;;6181234;28;20760;-53
2022/05/28 11:30:46;;;;;;;8.33;3.00;;;16.30;1.00;;;;;;6181344;28;20825;-52
2022/05/28 11:33:52;;;;;;;5.20;2.57;;;16.40;1.00;;;;;;6186594;28;20243;-53
2022/05/28 11:37:00;;;;;;;2.70;2.37;;;16.80;1.00;;;;;;6163420;28;20313;-53
2022/05/28 11:40:08;;;;;;;7.87;3.30;;;16.80;1.00;;;;;;6170521;28;20240;-57
2022/05/28 11:43:19;;;;;;;3.80;2.60;;;16.90;1.00;;;;;;6183575;28;20366;-53
2022/05/28 11:46:38;;;;;;;4.17;2.80;;;17.00;1.00;;;;;;6197918;28;20246;-53
2022/05/28 11:53:15;;;;;;;5.17;3.40;;;16.80;1.00;;;;;;6175790;28;20595;-53
2022/05/28 11:56:21;;;;;;;6.37;2.97;;;15.90;1.00;;;;;;6184635;28;20240;-53
2022/05/28 11:59:27;;;;;;;7.77;2.63;;;15.60;1.00;;;;;;6185747;28;21044;-54
2022/05/28 12:02:34;;;;;;;3.93;2.60;;;15.40;1.00;;;;;;6183171;28;20228;-53
2022/05/28 12:05:42;;;;;;;3.03;2.63;;;15.40;1.00;;;;;;6183263;28;20396;-54
2022/05/28 12:08:48;;;;;;;2.93;2.73;;;15.60;1.00;;;;;;6183833;28;20641;-55
2022/05/28 12:12:00;;;;;;;3.03;2.83;;;15.70;1.00;;;;;;6186471;28;20315;-53
2022/05/28 12:15:22;;;;;;;5.43;2.70;;;15.70;1.00;;;;;;6184415;28;20323;-54
2022/05/28 12:18:27;;;;;;;2.57;2.37;;;15.90;1.00;;;;;;6186505;28;20248;-56
2022/05/28 12:21:32;;;;;;;3.77;2.57;;;15.80;1.00;;;;;;6177425;28;20724;-54
2022/05/28 12:24:37;;;;;;;3.17;2.10;;;15.90;1.00;;;;;;6182905;28;20822;-52
2022/05/28 12:27:43;;;;;;;4.10;3.00;;;16.10;1.00;;;;;;6181002;28;20251;-54
2022/05/28 12:30:53;;;;;;;4.03;2.77;;;16.20;1.00;;;;;;6182465;28;20407;-53
2022/05/28 12:33:59;;;;;;;5.03;2.60;;;16.30;1.00;;;;;;6186258;28;20667;-56
2022/05/28 12:37:03;;;;;;;3.93;2.40;;;16.40;1.00;;;;;;6178237;28;20364;-54
2022/05/28 12:40:25;;;;;;;4.73;2.67;;;16.30;1.00;;;;;;6192593;28;20472;-54
2022/05/28 12:43:31;;;;;;;2.43;2.17;;;15.90;1.00;;;;;;6179413;28;20768;-53
2022/05/28 12:46:45;;;;;;;6.10;2.50;;;15.40;1.00;;;;;;6188880;28;20640;-53
2022/05/28 12:49:58;;;;;;;3.30;2.23;;;15.10;1.00;;;;;;6183094;28;20229;-53
2022/05/28 12:53:09;;;;;;;5.10;2.50;;;15.10;1.00;;;;;;6183876;28;20559;-55
2022/05/28 12:56:23;;;;;;;2.90;2.70;;;15.20;1.00;;;;;;6181108;28;20290;-54
2022/05/28 12:59:33;;;;;;;2.70;2.50;;;15.30;1.00;;;;;;6186810;28;20414;-53
2022/05/28 13:02:41;;;;;;;3.67;2.60;;;15.50;1.00;;;;;;6193578;28;20240;-54
2022/05/28 13:05:49;;;;;;;4.57;2.57;;;15.50;1.00;;;;;;6182248;28;20235;-56
2022/05/28 13:08:57;;;;;;;4.43;2.80;;;15.60;1.00;;;;;;6182509;28;20329;-54
2022/05/28 13:12:12;;;;;;;4.37;2.53;;;15.80;1.00;;;;;;6188748;28;20327;-55
2022/05/28 13:15:54;;;;;;;6.03;2.20;;;15.90;1.00;;;;;;6195303;28;20354;-54
2022/05/28 13:19:35;;;;;;;4.10;2.30;;;16.10;1.00;;;;;;6186975;28;20242;-55
2022/05/28 13:23:01;;;;;;;3.33;2.60;;;16.20;1.00;;;;;;6178462;28;20227;-55
2022/05/28 13:26:25;;;;;;;4.40;2.37;;;16.00;1.00;;;;;;6192411;28;20319;-54
2022/05/28 13:29:48;;;;;;;2.60;2.40;;;16.30;1.00;;;;;;6186146;28;20295;-54
2022/05/28 13:32:57;;;;;;;4.27;2.60;;;16.40;1.00;;;;;;6183360;28;20331;-54
2022/05/28 13:36:01;;;;;;;2.67;2.43;;;16.40;1.00;;;;;;6183044;28;20415;-56
2022/05/28 13:39:07;;;;;;;6.77;2.30;;;16.50;1.00;;;;;;6181851;28;20376;-52
2022/05/28 13:42:12;;;;;;;11.23;3.57;;;16.40;1.00;;;;;;6181614;28;20301;-53
2022/05/28 13:45:22;;;;;;;4.33;2.80;;;16.50;1.00;;;;;;6176175;28;20702;-54
2022/05/28 13:48:27;;;;;;;5.67;2.40;;;16.70;1.00;;;;;;6188069;28;20247;-53
2022/05/28 13:51:30;;;;;;;3.67;2.57;;;16.70;1.00;;;;;;6181847;28;20507;-55
2022/05/28 13:54:34;;;;;;;2.77;2.40;;;16.70;1.00;;;;;;6183574;28;20248;-54
2022/05/28 13:57:39;;;;;;;6.80;2.20;;;16.90;1.00;;;;;;6192099;28;20537;-54
2022/05/28 14:00:42;;;;;;;4.50;2.70;;;17.00;1.00;;;;;;6189518;28;20285;-55
2022/05/28 14:03:45;;;;;;;5.40;2.83;;;17.20;1.00;;;;;;6180727;28;20326;-59
2022/05/28 14:06:51;;;;;;;3.50;2.30;;;17.30;1.00;;;;;;6183034;28;20311;-55
2022/05/28 14:09:55;;;;;;;5.20;2.70;;;17.50;1.00;;;;;;6188599;28;20327;-54
2022/05/28 14:12:58;;;;;;;5.43;2.67;;;17.50;1.00;;;;;;6195955;28;20337;-54
2022/05/28 14:16:01;;;;;;;3.97;2.37;;;17.30;1.00;;;;;;6184845;28;20378;-53
2022/05/28 14:19:06;;;;;;;2.63;2.40;;;17.10;1.00;;;;;;6187141;28;20297;-54
2022/05/28 14:22:21;;;;;;;3.73;2.40;;;16.90;1.00;;;;;;6185363;28;20393;-53
2022/05/28 14:25:29;;;;;;;4.47;2.53;;;16.70;1.00;;;;;;6186456;28;20236;-54
2022/05/28 14:28:32;;;;;;;6.50;2.57;;;16.60;1.00;;;;;;6191132;28;20369;-54
2022/05/28 14:31:37;;;;;;;8.60;3.20;;;16.50;1.00;;;;;;6177119;28;20279;-54
2022/05/28 14:34:41;;;;;;;5.00;2.63;;;16.20;1.00;;;;;;6196194;28;20246;-54
2022/05/28 14:37:45;;;;;;;3.83;3.13;;;15.90;1.00;;;;;;6189388;28;20715;-53
2022/05/28 14:40:52;;;;;;;6.03;3.00;;;15.70;1.00;;;;;;6187795;28;20246;-52
2022/05/28 14:43:56;;;;;;;8.67;3.13;;;15.60;1.00;;;;;;6191569;28;20315;-54
2022/05/28 14:46:59;;;;;;;5.80;2.67;;;15.40;1.00;;;;;;6179076;28;20648;-54
2022/05/28 14:50:06;;;;;;;4.53;2.83;;;15.20;1.00;;;;;;6184034;28;20271;-52
2022/05/28 14:53:12;;;;;;;5.20;3.20;;;15.10;1.00;;;;;;6186259;28;20232;-53
2022/05/28 14:56:26;;;;;;;7.93;3.50;;;15.00;1.00;;;;;;6190810;28;20447;-52
2022/05/28 14:59:37;;;;;;;7.27;2.77;;;14.90;1.00;;;;;;6184742;28;20239;-51
2022/05/28 15:02:40;;;;;;;14.93;3.87;;;14.80;1.00;;;;;;6185978;28;20236;-54
2022/05/28 15:05:45;;;;;;;9.27;3.10;;;14.80;1.00;;;;;;6185572;28;20235;-56
2022/05/28 15:08:49;;;;;;;6.30;2.97;;;14.90;1.00;;;;;;6186149;28;20451;-54
2022/05/28 15:12:05;;;;;;;51.80;6.80;;;15.20;1.00;;;;;;6183255;28;20363;-53
2022/05/28 15:15:09;;;;;;;6.57;2.43;;;15.40;1.00;;;;;;6182047;28;20239;-55
2022/05/28 15:18:12;;;;;;;8.53;3.03;;;15.40;1.00;;;;;;6185814;28;20567;-54
2022/05/28 15:21:15;;;;;;;7.00;3.40;;;15.50;1.00;;;;;;6182200;28;20274;-56
2022/05/28 15:24:18;;;;;;;9.07;3.00;;;15.50;1.00;;;;;;6178886;28;20323;-54
2022/05/28 15:27:23;;;;;;;3.73;3.10;;;15.50;1.00;;;;;;6186063;28;20534;-55
2022/05/28 15:30:26;;;;;;;7.73;2.90;;;15.60;1.00;;;;;;6185131;28;20236;-55
2022/05/28 15:33:29;;;;;;;4.90;2.80;;;15.60;1.00;;;;;;6182530;28;20281;-55
2022/05/28 15:39:52;;;;;;;7.77;2.80;;;15.70;1.00;;;;;;6183233;28;20307;-55
2022/05/28 15:42:56;;;;;;;6.13;3.00;;;15.70;1.00;;;;;;6189607;28;20305;-55
2022/05/28 15:45:59;;;;;;;5.80;3.20;;;15.70;1.00;;;;;;6187353;28;20272;-56
2022/05/28 15:49:03;;;;;;;2.87;2.67;;;15.40;1.00;;;;;;6184141;28;20294;-55
2022/05/28 15:52:07;;;;;;;3.07;2.83;;;15.40;1.00;;;;;;6179511;28;20311;-55
2022/05/28 15:55:12;;;;;;;2.67;2.57;;;15.30;1.00;;;;;;6182919;28;20305;-54
2022/05/28 15:58:23;;;;;;;4.70;2.90;;;15.10;1.00;;;;;;6184064;28;20783;-56
2022/05/28 16:01:28;;;;;;;6.23;2.70;;;15.10;1.00;;;;;;6180849;28;20236;-56
2022/05/28 16:04:30;;;;;;;3.27;2.90;;;15.10;1.00;;;;;;6184218;28;20384;-56
2022/05/28 16:07:33;;;;;;;4.13;3.30;;;15.00;1.00;;;;;;6181373;28;20236;-54
2022/05/28 16:10:36;;;;;;;4.47;2.87;;;15.00;1.00;;;;;;6185977;28;20235;-55
2022/05/28 16:13:41;;;;;;;3.53;2.30;;;15.10;1.00;;;;;;6188776;28;20714;-54
2022/05/28 16:16:44;;;;;;;6.23;3.10;;;14.90;1.00;;;;;;6185355;28;20322;-55
2022/05/28 16:19:47;;;;;;;3.80;2.60;;;14.80;1.00;;;;;;6191934;28;20500;-56
2022/05/28 16:22:50;;;;;;;5.40;2.90;;;14.90;1.00;;;;;;6180831;28;20343;-55
2022/05/28 16:25:53;;;;;;;3.13;2.83;;;15.00;1.00;;;;;;6191199;28;20566;-55
2022/05/28 16:28:58;;;;;;;8.30;3.10;;;15.20;1.00;;;;;;6198027;28;20235;-55
2022/05/28 16:32:01;;;;;;;6.27;3.07;;;15.30;1.00;;;;;;6190785;28;20243;-55